createdAt,value
2022-12-26T00:00:09.775Z,77.98
2022-12-26T00:01:09.987Z,77.98
2022-12-26T00:02:10.349Z,77.98
2022-12-26T00:03:10.728Z,78.08
2022-12-26T00:04:50.127Z,77.98
2022-12-26T00:05:12.199Z,78.08
2022-12-26T00:06:11.500Z,78.19
2022-12-26T00:07:11.804Z,78.08
2022-12-26T00:08:12.119Z,78.08
2022-12-26T00:09:13.351Z,77.98
2022-12-26T00:10:12.646Z,77.87
2022-12-26T00:11:13.015Z,77.98
2022-12-26T00:12:13.279Z,77.87
2022-12-26T00:13:40.032Z,77.98
2022-12-26T00:14:14.947Z,77.87
2022-12-26T00:15:14.107Z,78.08
2022-12-26T00:16:14.452Z,77.98
2022-12-26T00:17:14.635Z,77.98
2022-12-26T00:18:14.902Z,77.87
2022-12-26T00:19:15.314Z,77.78
2022-12-26T00:20:15.541Z,77.57
2022-12-26T00:21:16.692Z,77.47
2022-12-26T00:22:16.001Z,77.33
2022-12-26T00:23:16.184Z,77.33
2022-12-26T00:24:16.441Z,77.23
2022-12-26T00:25:16.805Z,77.23
2022-12-26T00:26:17.153Z,77.23
2022-12-26T00:27:17.459Z,77.23
2022-12-26T00:28:17.748Z,77.44
2022-12-26T00:29:18.109Z,77.26
2022-12-26T00:30:18.419Z,77.37
2022-12-26T00:31:18.650Z,77.47
2022-12-26T00:32:18.990Z,77.57
2022-12-26T00:33:19.306Z,77.47
2022-12-26T00:34:19.581Z,77.57
2022-12-26T00:35:19.808Z,77.57
2022-12-26T00:36:20.046Z,77.67
2022-12-26T00:37:20.363Z,77.67
2022-12-26T00:38:20.534Z,77.57
2022-12-26T00:39:20.941Z,77.57
2022-12-26T00:40:21.082Z,77.57
2022-12-26T00:41:21.368Z,77.67
2022-12-26T00:42:21.637Z,77.67
2022-12-26T00:43:21.992Z,77.57
2022-12-26T00:44:22.299Z,77.47
2022-12-26T00:45:22.612Z,77.47
2022-12-26T00:46:22.894Z,77.47
2022-12-26T00:47:23.158Z,77.37
2022-12-26T00:48:23.382Z,77.37
2022-12-26T00:49:23.721Z,77.26
2022-12-26T00:50:25.454Z,77.26
2022-12-26T00:51:24.394Z,77.17
2022-12-26T00:52:24.644Z,77.06
2022-12-26T00:53:24.911Z,77.06
2022-12-26T00:54:25.171Z,76.96
2022-12-26T00:55:25.515Z,76.96
2022-12-26T00:56:25.780Z,76.82
2022-12-26T00:57:26.093Z,76.86
2022-12-26T00:58:26.397Z,76.72
2022-12-26T00:59:26.662Z,76.62
2022-12-26T01:00:26.897Z,76.72
2022-12-26T01:01:27.225Z,76.72
2022-12-26T01:02:27.529Z,76.62
2022-12-26T01:03:27.837Z,76.82
2022-12-26T01:04:28.000Z,76.82
2022-12-26T01:05:28.372Z,76.72
2022-12-26T01:06:28.704Z,76.72
2022-12-26T01:07:28.964Z,76.76
2022-12-26T01:08:29.335Z,76.72
2022-12-26T01:09:29.662Z,76.72
2022-12-26T01:10:30.080Z,76.72
2022-12-26T01:11:30.271Z,76.72
2022-12-26T01:12:30.569Z,76.82
2022-12-26T01:13:30.909Z,76.72
2022-12-26T01:14:31.203Z,76.72
2022-12-26T01:15:31.481Z,76.62
2022-12-26T01:16:31.807Z,76.62
2022-12-26T01:17:32.097Z,76.62
2022-12-26T01:18:32.363Z,76.52
2022-12-26T01:19:32.656Z,76.52
2022-12-26T01:20:32.989Z,76.52
2022-12-26T01:21:33.310Z,76.52
2022-12-26T01:22:33.618Z,76.52
2022-12-26T01:23:33.933Z,76.52
2022-12-26T01:24:34.234Z,76.52
2022-12-26T01:25:34.549Z,76.52
2022-12-26T01:26:34.852Z,76.52
2022-12-26T01:27:35.747Z,76.52
2022-12-26T01:28:35.381Z,76.62
2022-12-26T01:29:35.746Z,76.52
2022-12-26T01:30:36.032Z,76.62
2022-12-26T01:31:36.432Z,76.72
2022-12-26T01:32:36.691Z,76.72
2022-12-26T01:33:36.866Z,76.72
2022-12-26T01:34:37.177Z,76.72
2022-12-26T01:35:37.482Z,76.82
2022-12-26T01:36:37.761Z,76.82
2022-12-26T01:37:38.055Z,76.92
2022-12-26T01:38:38.345Z,76.82
2022-12-26T01:39:38.672Z,76.72
2022-12-26T01:40:38.969Z,76.72
2022-12-26T01:41:39.292Z,76.82
2022-12-26T01:42:39.606Z,76.82
2022-12-26T01:43:39.901Z,76.82
2022-12-26T01:44:40.088Z,76.92
2022-12-26T01:45:40.420Z,76.92
2022-12-26T01:46:40.729Z,77.03
2022-12-26T01:47:40.870Z,77.13
2022-12-26T01:48:41.166Z,77.13
2022-12-26T01:49:41.539Z,77.13
2022-12-26T01:50:41.821Z,77.13
2022-12-26T01:51:42.143Z,77.13
2022-12-26T01:52:42.354Z,77.13
2022-12-26T01:53:42.709Z,77.13
2022-12-26T01:54:43.267Z,77.13
2022-12-26T01:55:43.269Z,77.13
2022-12-26T01:56:43.544Z,77.13
2022-12-26T01:57:43.854Z,77.23
2022-12-26T01:58:44.143Z,77.23
2022-12-26T01:59:44.411Z,77.23
2022-12-26T02:00:44.769Z,77.23
2022-12-26T02:01:45.082Z,77.13
2022-12-26T02:02:45.332Z,77.13
2022-12-26T02:03:45.545Z,77.37
2022-12-26T02:04:45.822Z,77.33
2022-12-26T02:05:46.115Z,77.33
2022-12-26T02:06:46.423Z,77.33
2022-12-26T02:07:46.736Z,77.44
2022-12-26T02:08:47.036Z,77.47
2022-12-26T02:09:47.329Z,77.57
2022-12-26T02:10:47.606Z,77.57
2022-12-26T02:11:47.980Z,77.57
2022-12-26T02:12:49.228Z,77.57
2022-12-26T02:13:48.521Z,77.57
2022-12-26T02:14:48.851Z,77.67
2022-12-26T02:15:49.073Z,77.57
2022-12-26T02:16:49.394Z,77.78
2022-12-26T02:17:49.568Z,77.78
2022-12-26T02:18:49.981Z,77.87
2022-12-26T02:19:50.267Z,77.78
2022-12-26T02:20:50.600Z,77.78
2022-12-26T02:21:50.879Z,77.98
2022-12-26T02:22:51.163Z,77.87
2022-12-26T02:23:51.457Z,78.08
2022-12-26T02:24:51.708Z,78.08
2022-12-26T02:25:52.056Z,78.08
2022-12-26T02:26:52.391Z,78.08
2022-12-26T02:27:52.665Z,78.08
2022-12-26T02:28:52.948Z,78.32
2022-12-26T02:29:53.268Z,78.53
2022-12-26T02:30:53.573Z,78.39
2022-12-26T02:31:54.285Z,78.39
2022-12-26T02:32:54.210Z,78.28
2022-12-26T02:33:54.490Z,78.28
2022-12-26T02:34:54.768Z,78.39
2022-12-26T02:35:55.084Z,78.53
2022-12-26T02:36:55.446Z,78.42
2022-12-26T02:37:55.784Z,78.53
2022-12-26T02:38:55.981Z,78.63
2022-12-26T02:39:56.273Z,78.73
2022-12-26T02:40:56.559Z,78.73
2022-12-26T02:41:56.924Z,78.73
2022-12-26T02:42:57.209Z,78.73
2022-12-26T02:43:57.557Z,78.73
2022-12-26T02:44:57.659Z,78.93
2022-12-26T02:45:58.088Z,79.14
2022-12-26T02:46:58.355Z,79.24
2022-12-26T02:47:59.555Z,79.44
2022-12-26T02:48:59.046Z,79.34
2022-12-26T02:49:59.359Z,79.24
2022-12-26T02:50:59.722Z,79.34
2022-12-26T02:51:59.917Z,79.44
2022-12-26T02:53:00.184Z,79.34
2022-12-26T02:54:00.561Z,79.14
2022-12-26T02:55:00.839Z,79.14
2022-12-26T02:56:01.190Z,79.14
2022-12-26T02:57:01.519Z,79.34
2022-12-26T02:58:01.808Z,79.44
2022-12-26T02:59:02.966Z,79.44
2022-12-26T03:00:02.383Z,79.44
2022-12-26T03:01:02.668Z,79.44
2022-12-26T03:02:03.153Z,79.34
2022-12-26T03:03:03.307Z,79.44
2022-12-26T03:04:03.519Z,79.44
2022-12-26T03:05:03.923Z,79.44
2022-12-26T03:06:04.130Z,79.44
2022-12-26T03:07:04.408Z,79.44
2022-12-26T03:08:04.709Z,79.44
2022-12-26T03:09:05.005Z,79.44
2022-12-26T03:10:05.296Z,79.44
2022-12-26T03:11:05.582Z,79.54
2022-12-26T03:12:05.868Z,79.54
2022-12-26T03:13:06.189Z,79.54
2022-12-26T03:14:06.480Z,79.44
2022-12-26T03:15:06.710Z,79.44
2022-12-26T03:16:07.087Z,79.44
2022-12-26T03:17:07.504Z,79.54
2022-12-26T03:18:07.687Z,79.54
2022-12-26T03:19:07.981Z,79.44
2022-12-26T03:20:08.348Z,79.34
2022-12-26T03:21:08.675Z,79.34
2022-12-26T03:22:09.032Z,79.34
2022-12-26T03:23:09.203Z,79.64
2022-12-26T03:24:09.581Z,79.64
2022-12-26T03:25:09.722Z,79.75
2022-12-26T03:26:10.041Z,79.64
2022-12-26T03:27:10.355Z,79.79
2022-12-26T03:28:10.686Z,79.89
2022-12-26T03:29:14.409Z,79.89
2022-12-26T03:30:12.288Z,79.89
2022-12-26T03:31:11.615Z,79.89
2022-12-26T03:32:11.981Z,79.89
2022-12-26T03:33:12.230Z,79.89
2022-12-26T03:34:12.600Z,79.89
2022-12-26T03:35:12.901Z,79.89
2022-12-26T03:36:13.208Z,79.99
2022-12-26T03:37:13.574Z,79.89
2022-12-26T03:38:13.753Z,79.89
2022-12-26T03:39:14.075Z,79.75
2022-12-26T03:40:14.371Z,79.79
2022-12-26T03:41:14.642Z,79.79
2022-12-26T03:42:14.974Z,79.79
2022-12-26T03:43:15.321Z,79.89
2022-12-26T03:44:15.630Z,79.99
2022-12-26T03:45:15.937Z,79.99
2022-12-26T03:46:16.291Z,79.89
2022-12-26T03:47:16.449Z,79.79
2022-12-26T03:48:16.781Z,79.79
2022-12-26T03:49:17.050Z,79.89
2022-12-26T03:50:17.457Z,79.79
2022-12-26T03:51:17.611Z,79.75
2022-12-26T03:52:17.843Z,79.75
2022-12-26T03:53:18.141Z,79.64
2022-12-26T03:54:18.400Z,79.64
2022-12-26T03:55:18.748Z,79.54
2022-12-26T03:56:19.025Z,79.54
2022-12-26T03:57:19.346Z,79.54
2022-12-26T03:58:19.669Z,79.64
2022-12-26T03:59:19.981Z,79.64
2022-12-26T04:00:20.283Z,79.64
2022-12-26T04:01:20.688Z,79.64
2022-12-26T04:02:20.992Z,79.54
2022-12-26T04:03:21.327Z,79.54
2022-12-26T04:04:21.504Z,79.54
2022-12-26T04:05:21.940Z,79.44
2022-12-26T04:06:22.160Z,79.44
2022-12-26T04:07:22.838Z,79.54
2022-12-26T04:08:22.586Z,79.54
2022-12-26T04:09:22.865Z,79.54
2022-12-26T04:10:23.119Z,79.54
2022-12-26T04:11:23.489Z,79.54
2022-12-26T04:12:23.823Z,79.54
2022-12-26T04:13:24.112Z,79.54
2022-12-26T04:14:24.433Z,79.64
2022-12-26T04:15:24.694Z,79.64
2022-12-26T04:16:24.986Z,79.64
2022-12-26T04:17:25.220Z,79.64
2022-12-26T04:18:25.504Z,79.54
2022-12-26T04:19:25.692Z,79.54
2022-12-26T04:20:26.060Z,79.64
2022-12-26T04:21:26.214Z,79.64
2022-12-26T04:22:26.553Z,79.75
2022-12-26T04:23:26.869Z,79.64
2022-12-26T04:24:27.155Z,79.64
2022-12-26T04:25:50.860Z,79.54
2022-12-26T04:26:28.779Z,79.54
2022-12-26T04:27:27.952Z,79.44
2022-12-26T04:28:28.273Z,79.44
2022-12-26T04:29:28.543Z,79.54
2022-12-26T04:30:28.857Z,79.64
2022-12-26T04:31:29.259Z,79.95
2022-12-26T04:32:29.485Z,80.05
2022-12-26T04:33:29.705Z,80.05
2022-12-26T04:34:29.990Z,80.05
2022-12-26T04:35:30.265Z,80.05
2022-12-26T04:36:30.582Z,80.05
2022-12-26T04:37:30.956Z,80.05
2022-12-26T04:38:31.135Z,80.05
2022-12-26T04:39:31.407Z,79.95
2022-12-26T04:40:31.767Z,79.95
2022-12-26T04:41:31.976Z,79.95
2022-12-26T04:42:32.336Z,79.95
2022-12-26T04:43:48.080Z,79.95
2022-12-26T04:44:33.916Z,79.95
2022-12-26T04:45:33.210Z,80.05
2022-12-26T04:46:33.615Z,80.05
2022-12-26T04:47:33.791Z,80.16
2022-12-26T04:48:34.154Z,80.05
2022-12-26T04:49:34.317Z,80.05
2022-12-26T04:50:34.607Z,80.26
2022-12-26T04:51:34.902Z,80.26
2022-12-26T04:52:35.256Z,80.26
2022-12-26T04:53:35.441Z,80.16
2022-12-26T04:54:35.819Z,80.26
2022-12-26T04:55:35.988Z,80.26
2022-12-26T04:56:36.301Z,80.26
2022-12-26T04:57:36.562Z,80.36
2022-12-26T04:58:36.901Z,80.40
2022-12-26T04:59:37.279Z,80.36
2022-12-26T05:00:37.544Z,80.26
2022-12-26T05:01:38.016Z,80.26
2022-12-26T05:02:38.316Z,80.26
2022-12-26T05:03:38.276Z,80.36
2022-12-26T05:04:38.677Z,80.36
2022-12-26T05:05:38.966Z,80.36
2022-12-26T05:06:39.312Z,80.16
2022-12-26T05:07:39.567Z,80.16
2022-12-26T05:08:39.849Z,80.16
2022-12-26T05:09:40.167Z,80.16
2022-12-26T05:10:40.651Z,80.16
2022-12-26T05:11:40.834Z,80.05
2022-12-26T05:12:41.165Z,80.26
2022-12-26T05:13:41.367Z,80.26
2022-12-26T05:14:41.691Z,80.26
2022-12-26T05:15:42.058Z,80.16
2022-12-26T05:16:42.371Z,80.05
2022-12-26T05:17:42.628Z,79.95
2022-12-26T05:18:42.976Z,79.95
2022-12-26T05:19:43.156Z,79.95
2022-12-26T05:20:43.471Z,79.85
2022-12-26T05:21:43.833Z,79.95
2022-12-26T05:22:44.016Z,79.95
2022-12-26T05:23:44.317Z,79.95
2022-12-26T05:24:44.612Z,79.95
2022-12-26T05:25:44.939Z,79.95
2022-12-26T05:26:45.188Z,79.95
2022-12-26T05:27:45.385Z,79.95
2022-12-26T05:28:45.720Z,79.95
2022-12-26T05:29:45.999Z,79.85
2022-12-26T05:30:46.359Z,79.85
2022-12-26T05:31:46.722Z,79.85
2022-12-26T05:32:46.956Z,79.85
2022-12-26T05:33:47.258Z,79.85
2022-12-26T05:34:47.563Z,79.95
2022-12-26T05:35:47.808Z,79.95
2022-12-26T05:36:48.208Z,79.95
2022-12-26T05:37:48.407Z,79.95
2022-12-26T05:38:48.675Z,79.95
2022-12-26T05:39:48.942Z,79.95
2022-12-26T05:40:49.282Z,79.85
2022-12-26T05:41:50.984Z,79.85
2022-12-26T05:42:49.910Z,79.85
2022-12-26T05:43:50.219Z,79.95
2022-12-26T05:44:50.622Z,79.95
2022-12-26T05:45:50.824Z,79.95
2022-12-26T05:46:52.105Z,79.81
2022-12-26T05:47:52.246Z,79.81
2022-12-26T05:48:51.757Z,79.81
2022-12-26T05:49:51.930Z,79.91
2022-12-26T05:50:52.285Z,79.91
2022-12-26T05:51:52.526Z,80.02
2022-12-26T05:52:52.897Z,79.81
2022-12-26T05:53:53.053Z,79.71
2022-12-26T05:54:53.360Z,79.61
2022-12-26T05:55:53.658Z,79.61
2022-12-26T05:56:54.075Z,79.81
2022-12-26T05:57:54.213Z,79.71
2022-12-26T05:58:54.535Z,80.02
2022-12-26T05:59:54.841Z,80.11
2022-12-26T06:00:55.277Z,80.22
2022-12-26T06:01:55.564Z,80.11
2022-12-26T06:02:55.889Z,80.02
2022-12-26T06:03:56.199Z,80.02
2022-12-26T06:04:56.387Z,80.11
2022-12-26T06:05:56.760Z,80.22
2022-12-26T06:06:57.016Z,80.32
2022-12-26T06:07:57.282Z,80.42
2022-12-26T06:08:57.646Z,80.32
2022-12-26T06:09:58.025Z,80.32
2022-12-26T06:10:58.207Z,80.32
2022-12-26T06:11:58.512Z,80.56
2022-12-26T06:12:58.803Z,80.52
2022-12-26T06:13:59.054Z,80.66
2022-12-26T06:14:59.413Z,80.66
2022-12-26T06:15:59.755Z,80.77
2022-12-26T06:16:59.938Z,80.73
2022-12-26T06:18:00.332Z,80.63
2022-12-26T06:19:00.507Z,80.73
2022-12-26T06:20:00.812Z,80.87
2022-12-26T06:21:01.041Z,80.97
2022-12-26T06:22:01.371Z,80.83
2022-12-26T06:23:01.695Z,80.97
2022-12-26T06:24:01.916Z,80.93
2022-12-26T06:25:02.175Z,81.07
2022-12-26T06:26:02.501Z,81.07
2022-12-26T06:27:02.808Z,81.17
2022-12-26T06:28:03.156Z,81.13
2022-12-26T06:29:03.506Z,81.27
2022-12-26T06:30:03.689Z,81.38
2022-12-26T06:31:04.053Z,81.48
2022-12-26T06:32:04.339Z,81.58
2022-12-26T06:33:04.538Z,81.44
2022-12-26T06:34:04.853Z,81.48
2022-12-26T06:35:05.223Z,81.88
2022-12-26T06:36:05.353Z,81.88
2022-12-26T06:37:05.713Z,81.99
2022-12-26T06:38:05.971Z,82.09
2022-12-26T06:39:06.243Z,82.19
2022-12-26T06:40:07.385Z,82.40
2022-12-26T06:41:06.845Z,82.40
2022-12-26T06:42:07.135Z,82.70
2022-12-26T06:43:07.402Z,83.01
2022-12-26T06:44:10.559Z,83.01
2022-12-26T06:45:09.069Z,83.01
2022-12-26T06:46:08.360Z,83.11
2022-12-26T06:47:08.792Z,83.11
2022-12-26T06:48:08.995Z,83.21
2022-12-26T06:49:09.310Z,83.42
2022-12-26T06:50:09.622Z,83.42
2022-12-26T06:51:09.924Z,83.86
2022-12-26T06:52:10.321Z,84.06
2022-12-26T06:53:10.411Z,84.37
2022-12-26T06:54:10.752Z,84.58
2022-12-26T06:55:11.020Z,84.88
2022-12-26T06:56:11.286Z,85.08
2022-12-26T06:57:11.625Z,85.25
2022-12-26T06:58:11.902Z,85.39
2022-12-26T06:59:12.192Z,85.69
2022-12-26T07:00:12.380Z,86.10
2022-12-26T07:01:12.828Z,86.21
2022-12-26T07:02:13.142Z,86.10
2022-12-26T07:03:13.469Z,86.10
2022-12-26T07:04:13.755Z,86.30
2022-12-26T07:05:13.976Z,86.30
2022-12-26T07:06:14.218Z,86.51
2022-12-26T07:07:14.610Z,86.41
2022-12-26T07:08:14.946Z,86.61
2022-12-26T07:09:15.200Z,86.71
2022-12-26T07:10:15.383Z,86.71
2022-12-26T07:11:15.724Z,86.71
2022-12-26T07:12:16.059Z,86.71
2022-12-26T07:13:16.320Z,86.82
2022-12-26T07:14:16.509Z,86.92
2022-12-26T07:15:16.851Z,86.71
2022-12-26T07:16:17.113Z,86.82
2022-12-26T07:17:17.362Z,86.92
2022-12-26T07:18:17.527Z,87.02
2022-12-26T07:19:17.886Z,87.26
2022-12-26T07:20:18.196Z,87.37
2022-12-26T07:21:18.573Z,87.37
2022-12-26T07:22:18.863Z,87.47
2022-12-26T07:23:19.077Z,87.57
2022-12-26T07:24:19.334Z,87.57
2022-12-26T07:25:19.573Z,87.77
2022-12-26T07:26:19.818Z,87.77
2022-12-26T07:27:20.081Z,87.88
2022-12-26T07:28:20.303Z,87.98
2022-12-26T07:29:20.703Z,87.98
2022-12-26T07:30:20.941Z,87.98
2022-12-26T07:31:22.177Z,88.18
2022-12-26T07:32:21.436Z,88.28
2022-12-26T07:33:21.677Z,88.39
2022-12-26T07:34:26.404Z,88.49
2022-12-26T07:35:23.208Z,88.59
2022-12-26T07:36:22.470Z,88.69
2022-12-26T07:37:22.783Z,88.59
2022-12-26T07:38:22.958Z,88.49
2022-12-26T07:39:23.380Z,88.39
2022-12-26T07:40:23.521Z,88.59
2022-12-26T07:41:23.776Z,88.69
2022-12-26T07:42:23.971Z,88.79
2022-12-26T07:43:24.206Z,88.90
2022-12-26T07:44:24.420Z,88.90
2022-12-26T07:45:24.762Z,89.00
2022-12-26T07:46:25.333Z,89.00
2022-12-26T07:47:26.084Z,89.20
2022-12-26T07:48:25.590Z,89.30
2022-12-26T07:49:25.963Z,89.40
2022-12-26T07:50:26.179Z,89.71
2022-12-26T07:51:26.863Z,89.65
2022-12-26T07:52:26.690Z,89.71
2022-12-26T07:53:27.840Z,89.61
2022-12-26T07:54:27.159Z,89.51
2022-12-26T07:55:27.513Z,89.40
2022-12-26T07:56:27.740Z,89.40
2022-12-26T07:57:48.103Z,89.40
2022-12-26T07:58:29.270Z,89.20
2022-12-26T07:59:28.537Z,89.40
2022-12-26T08:00:28.782Z,89.40
2022-12-26T08:01:29.164Z,89.40
2022-12-26T08:02:29.421Z,89.40
2022-12-26T08:03:29.632Z,89.30
2022-12-26T08:04:30.346Z,89.10
2022-12-26T08:05:30.141Z,89.30
2022-12-26T08:06:30.411Z,89.71
2022-12-26T08:07:30.653Z,89.51
2022-12-26T08:08:30.875Z,89.51
2022-12-26T08:09:31.283Z,89.40
2022-12-26T08:10:31.515Z,89.20
2022-12-26T08:11:31.803Z,89.30
2022-12-26T08:12:31.988Z,89.20
2022-12-26T08:13:32.325Z,89.61
2022-12-26T08:14:32.626Z,89.81
2022-12-26T08:15:32.852Z,89.92
2022-12-26T08:16:33.152Z,89.92
2022-12-26T08:17:33.380Z,89.92
2022-12-26T08:18:33.622Z,90.01
2022-12-26T08:19:33.899Z,89.92
2022-12-26T08:20:34.138Z,89.92
2022-12-26T08:21:34.441Z,89.81
2022-12-26T08:22:34.633Z,89.77
2022-12-26T08:23:34.946Z,89.81
2022-12-26T08:24:35.180Z,90.01
2022-12-26T08:25:35.481Z,90.22
2022-12-26T08:26:35.676Z,90.22
2022-12-26T08:27:35.932Z,90.73
2022-12-26T08:28:36.277Z,91.18
2022-12-26T08:29:36.494Z,91.28
2022-12-26T08:30:36.752Z,91.49
2022-12-26T08:31:36.999Z,91.69
2022-12-26T08:32:39.498Z,91.79
2022-12-26T08:33:38.494Z,92.00
2022-12-26T08:34:37.790Z,92.30
2022-12-26T08:35:38.095Z,92.41
2022-12-26T08:36:38.273Z,92.20
2022-12-26T08:37:38.609Z,92.10
2022-12-26T08:38:38.815Z,92.00
2022-12-26T08:39:39.050Z,92.00
2022-12-26T08:40:43.905Z,91.79
2022-12-26T08:41:40.673Z,91.18
2022-12-26T08:42:56.153Z,91.08
2022-12-26T08:44:41.482Z,90.22
2022-12-26T08:45:40.813Z,89.71
2022-12-26T08:46:41.053Z,89.61
2022-12-26T08:47:41.441Z,89.30
2022-12-26T08:48:41.664Z,88.69
2022-12-26T08:49:41.923Z,88.49
2022-12-26T08:50:42.196Z,88.18
2022-12-26T08:51:42.485Z,87.94
2022-12-26T08:52:42.701Z,87.94
2022-12-26T08:53:42.928Z,87.94
2022-12-26T08:54:43.161Z,87.84
2022-12-26T08:55:43.439Z,87.23
2022-12-26T08:56:44.142Z,87.32
2022-12-26T08:57:43.946Z,87.32
2022-12-26T08:58:44.231Z,87.02
2022-12-26T08:59:44.442Z,87.02
2022-12-26T09:00:44.696Z,86.82
2022-12-26T09:01:45.117Z,86.71
2022-12-26T09:02:45.405Z,86.82
2022-12-26T09:03:45.535Z,86.71
2022-12-26T09:04:45.772Z,85.80
2022-12-26T09:05:46.019Z,86.21
2022-12-26T09:06:46.284Z,86.51
2022-12-26T09:07:46.554Z,86.61
2022-12-26T09:08:46.767Z,86.51
2022-12-26T09:09:47.178Z,86.27
2022-12-26T09:10:47.358Z,86.10
2022-12-26T09:11:47.621Z,86.00
2022-12-26T09:12:47.855Z,86.21
2022-12-26T09:13:48.239Z,86.41
2022-12-26T09:14:50.161Z,86.30
2022-12-26T09:15:49.696Z,86.41
2022-12-26T09:16:51.083Z,86.41
2022-12-26T09:17:49.262Z,86.30
2022-12-26T09:18:49.488Z,85.80
2022-12-26T09:19:49.858Z,86.41
2022-12-26T09:20:50.063Z,86.61
2022-12-26T09:21:50.442Z,86.21
2022-12-26T09:22:50.672Z,85.90
2022-12-26T09:23:51.019Z,85.80
2022-12-26T09:24:51.258Z,85.90
2022-12-26T09:25:51.498Z,85.69
2022-12-26T09:26:51.761Z,87.02
2022-12-26T09:27:58.579Z,87.53
2022-12-26T09:28:53.282Z,87.84
2022-12-26T09:29:52.535Z,88.45
2022-12-26T09:30:52.805Z,89.16
2022-12-26T09:31:53.061Z,89.71
2022-12-26T09:32:53.280Z,89.87
2022-12-26T09:33:53.592Z,90.22
2022-12-26T09:34:53.766Z,90.53
2022-12-26T09:35:58.282Z,90.94
2022-12-26T09:36:55.262Z,90.94
2022-12-26T09:37:54.651Z,91.14
2022-12-26T09:38:54.929Z,91.35
2022-12-26T09:39:55.153Z,91.55
2022-12-26T09:40:55.498Z,91.69
2022-12-26T09:41:55.886Z,91.79
2022-12-26T09:42:56.153Z,91.89
2022-12-26T09:43:56.447Z,91.89
2022-12-26T09:44:56.626Z,91.85
2022-12-26T09:45:56.976Z,92.00
2022-12-26T09:46:57.190Z,92.10
2022-12-26T09:47:57.444Z,92.20
2022-12-26T09:48:57.671Z,92.20
2022-12-26T09:49:57.951Z,92.41
2022-12-26T09:50:58.167Z,92.41
2022-12-26T09:51:58.429Z,92.50
2022-12-26T09:52:58.687Z,92.41
2022-12-26T09:53:59.030Z,92.10
2022-12-26T09:54:59.252Z,92.10
2022-12-26T09:55:59.527Z,92.20
2022-12-26T09:57:04.035Z,92.20
2022-12-26T09:58:01.077Z,91.89
2022-12-26T09:59:00.356Z,92.10
2022-12-26T10:00:00.615Z,92.00
2022-12-26T10:01:00.844Z,91.49
2022-12-26T10:02:01.424Z,91.08
2022-12-26T10:03:01.568Z,91.28
2022-12-26T10:04:01.830Z,90.06
2022-12-26T10:05:02.181Z,89.96
2022-12-26T10:06:02.401Z,89.04
2022-12-26T10:07:02.574Z,87.92
2022-12-26T10:08:02.829Z,87.37
2022-12-26T10:09:03.078Z,86.86
2022-12-26T10:10:03.357Z,86.65
2022-12-26T10:11:03.562Z,86.24
2022-12-26T10:12:03.940Z,85.84
2022-12-26T10:13:04.181Z,85.53
2022-12-26T10:14:04.607Z,85.49
2022-12-26T10:15:04.752Z,84.47
2022-12-26T10:16:04.986Z,84.88
2022-12-26T10:17:05.214Z,84.06
2022-12-26T10:18:05.999Z,84.27
2022-12-26T10:19:05.912Z,84.37
2022-12-26T10:20:06.190Z,84.27
2022-12-26T10:21:07.719Z,83.86
2022-12-26T10:22:06.711Z,84.06
2022-12-26T10:23:06.961Z,84.06
2022-12-26T10:24:07.341Z,84.03
2022-12-26T10:25:07.503Z,83.51
2022-12-26T10:26:07.755Z,83.42
2022-12-26T10:27:09.097Z,83.82
2022-12-26T10:28:08.795Z,83.21
2022-12-26T10:29:09.183Z,83.11
2022-12-26T10:30:08.802Z,84.03
2022-12-26T10:31:09.151Z,83.51
2022-12-26T10:32:09.461Z,83.42
2022-12-26T10:33:09.710Z,83.11
2022-12-26T10:34:10.283Z,82.80
2022-12-26T10:35:10.449Z,82.90
2022-12-26T10:36:10.778Z,82.97
2022-12-26T10:37:10.978Z,83.01
2022-12-26T10:38:11.139Z,83.17
2022-12-26T10:39:11.413Z,83.27
2022-12-26T10:40:11.835Z,83.37
2022-12-26T10:41:12.210Z,82.87
2022-12-26T10:42:12.381Z,83.17
2022-12-26T10:43:12.647Z,83.17
2022-12-26T10:44:12.859Z,82.76
2022-12-26T10:45:13.219Z,82.76
2022-12-26T10:46:13.764Z,82.66
2022-12-26T10:47:18.035Z,82.42
2022-12-26T10:48:35.092Z,82.46
2022-12-26T10:49:35.445Z,82.46
2022-12-26T10:50:35.457Z,82.42
2022-12-26T10:51:15.055Z,82.32
2022-12-26T10:52:18.659Z,82.21
2022-12-26T10:53:15.396Z,82.42
2022-12-26T10:54:22.241Z,82.21
2022-12-26T10:55:29.345Z,82.35
2022-12-26T10:56:18.520Z,82.66
2022-12-26T10:57:37.508Z,82.76
2022-12-26T10:58:17.175Z,82.87
2022-12-26T10:59:38.350Z,83.17
2022-12-26T11:00:17.351Z,83.27
2022-12-26T11:01:38.640Z,83.27
2022-12-26T11:02:18.023Z,83.27
2022-12-26T11:03:18.240Z,83.17
2022-12-26T11:05:13.212Z,82.87
2022-12-26T11:05:40.351Z,82.73
2022-12-26T11:06:20.074Z,82.82
2022-12-26T11:07:19.370Z,82.73
2022-12-26T11:08:20.063Z,82.82
2022-12-26T11:09:20.026Z,82.73
2022-12-26T11:10:20.153Z,82.82
2022-12-26T11:11:20.787Z,82.93
2022-12-26T11:12:21.251Z,82.82
2022-12-26T11:13:21.524Z,82.82
2022-12-26T11:14:21.618Z,82.62
2022-12-26T11:15:21.967Z,82.73
2022-12-26T11:16:22.097Z,83.13
2022-12-26T11:17:22.183Z,83.34
2022-12-26T11:18:22.431Z,83.13
2022-12-26T11:19:22.680Z,83.13
2022-12-26T11:20:23.007Z,83.23
2022-12-26T11:21:23.190Z,82.93
2022-12-26T11:22:23.454Z,83.34
2022-12-26T11:23:23.793Z,83.03
2022-12-26T11:24:23.988Z,82.93
2022-12-26T11:25:24.256Z,83.34
2022-12-26T11:26:24.484Z,83.44
2022-12-26T11:27:24.869Z,83.03
2022-12-26T11:28:25.118Z,83.23
2022-12-26T11:29:25.429Z,83.13
2022-12-26T11:30:25.602Z,82.62
2022-12-26T11:31:26.067Z,82.62
2022-12-26T11:32:26.300Z,82.01
2022-12-26T11:33:26.562Z,82.21
2022-12-26T11:34:26.741Z,82.59
2022-12-26T11:35:27.103Z,82.62
2022-12-26T11:36:27.365Z,82.93
2022-12-26T11:37:27.659Z,83.03
2022-12-26T11:38:27.882Z,83.29
2022-12-26T11:39:28.140Z,82.79
2022-12-26T11:40:28.562Z,82.79
2022-12-26T11:41:28.683Z,82.89
2022-12-26T11:42:28.946Z,82.79
2022-12-26T11:43:29.214Z,82.42
2022-12-26T11:44:29.461Z,82.82
2022-12-26T11:45:34.068Z,82.99
2022-12-26T11:46:31.063Z,82.79
2022-12-26T11:47:30.303Z,82.18
2022-12-26T11:48:30.562Z,82.04
2022-12-26T11:49:30.837Z,82.14
2022-12-26T11:50:31.139Z,81.43
2022-12-26T11:51:31.359Z,81.02
2022-12-26T11:52:31.617Z,80.98
2022-12-26T11:53:31.903Z,80.58
2022-12-26T11:54:32.148Z,80.37
2022-12-26T11:55:32.919Z,80.17
2022-12-26T11:56:32.613Z,80.37
2022-12-26T11:57:32.889Z,79.72
2022-12-26T11:58:33.197Z,80.17
2022-12-26T11:59:33.421Z,79.42
2022-12-26T12:00:33.680Z,79.12
2022-12-26T12:01:34.045Z,78.91
2022-12-26T12:02:34.316Z,79.05
2022-12-26T12:03:34.895Z,79.25
2022-12-26T12:04:34.831Z,79.56
2022-12-26T12:05:35.593Z,79.86
2022-12-26T12:06:35.374Z,79.36
2022-12-26T12:07:35.827Z,79.46
2022-12-26T12:08:36.040Z,79.66
2022-12-26T12:09:36.287Z,79.56
2022-12-26T12:10:36.505Z,79.25
2022-12-26T12:11:36.873Z,79.56
2022-12-26T12:12:37.177Z,79.86
2022-12-26T12:13:37.428Z,79.77
2022-12-26T12:14:37.691Z,79.36
2022-12-26T12:15:38.016Z,80.07
2022-12-26T12:16:38.262Z,79.46
2022-12-26T12:17:38.534Z,79.66
2022-12-26T12:18:38.804Z,79.05
2022-12-26T12:19:39.089Z,79.05
2022-12-26T12:20:39.409Z,78.64
2022-12-26T12:21:39.654Z,79.05
2022-12-26T12:22:39.958Z,78.95
2022-12-26T12:23:40.178Z,79.05
2022-12-26T12:24:40.425Z,79.16
2022-12-26T12:25:40.700Z,79.16
2022-12-26T12:26:40.896Z,79.36
2022-12-26T12:27:41.234Z,79.09
2022-12-26T12:28:41.448Z,79.50
2022-12-26T12:29:41.784Z,79.80
2022-12-26T12:30:42.075Z,80.00
2022-12-26T12:31:42.386Z,79.90
2022-12-26T12:32:42.604Z,79.70
2022-12-26T12:33:42.884Z,80.11
2022-12-26T12:34:43.092Z,80.11
2022-12-26T12:35:43.413Z,80.11
2022-12-26T12:36:43.624Z,79.80
2022-12-26T12:37:43.896Z,79.80
2022-12-26T12:38:44.142Z,79.80
2022-12-26T12:39:44.501Z,79.80
2022-12-26T12:40:44.779Z,79.80
2022-12-26T12:41:45.013Z,79.39
2022-12-26T12:42:45.318Z,79.36
2022-12-26T12:43:45.600Z,79.60
2022-12-26T12:44:45.866Z,79.80
2022-12-26T12:45:46.130Z,79.70
2022-12-26T12:46:46.381Z,80.11
2022-12-26T12:47:46.585Z,80.00
2022-12-26T12:48:47.343Z,80.00
2022-12-26T12:49:47.256Z,80.11
2022-12-26T12:50:51.697Z,79.90
2022-12-26T12:51:48.740Z,79.70
2022-12-26T12:52:48.040Z,79.80
2022-12-26T12:53:48.313Z,79.70
2022-12-26T12:54:48.575Z,79.74
2022-12-26T12:55:48.983Z,80.04
2022-12-26T12:56:49.051Z,80.11